sensor_id;sensor_type;location;lat;lon;timestamp;P1;durP1;ratioP1;P2;durP2;ratioP2
61013;SDS011;46899;47.542;19.082;2024-03-23T00:53:58;26.67;;;15.20;;
61013;SDS011;46899;47.542;19.082;2024-03-23T00:56:59;23.85;;;14.73;;
61013;SDS011;46899;47.542;19.082;2024-03-23T01:00:02;24.40;;;14.55;;
61013;SDS011;46899;47.542;19.082;2024-03-23T01:03:04;22.62;;;14.93;;
61013;SDS011;46899;47.542;19.082;2024-03-23T01:06:07;23.33;;;14.60;;
61013;SDS011;46899;47.542;19.082;2024-03-23T01:09:08;21.52;;;13.57;;
61013;SDS011;46899;47.542;19.082;2024-03-23T01:12:12;21.25;;;15.18;;
61013;SDS011;46899;47.542;19.082;2024-03-23T01:15:14;23.25;;;14.43;;
61013;SDS011;46899;47.542;19.082;2024-03-23T01:18:16;19.17;;;13.73;;
61013;SDS011;46899;47.542;19.082;2024-03-23T01:21:20;24.80;;;15.10;;
61013;SDS011;46899;47.542;19.082;2024-03-23T01:24:22;21.33;;;13.57;;
61013;SDS011;46899;47.542;19.082;2024-03-23T01:27:24;22.83;;;15.23;;
61013;SDS011;46899;47.542;19.082;2024-03-23T01:30:27;22.70;;;14.32;;
61013;SDS011;46899;47.542;19.082;2024-03-23T01:33:29;27.73;;;14.45;;
61013;SDS011;46899;47.542;19.082;2024-03-23T01:36:31;22.70;;;14.48;;
61013;SDS011;46899;47.542;19.082;2024-03-23T01:39:33;23.38;;;15.52;;
61013;SDS011;46899;47.542;19.082;2024-03-23T01:42:35;23.02;;;14.35;;
61013;SDS011;46899;47.542;19.082;2024-03-23T01:45:36;22.85;;;15.15;;
61013;SDS011;46899;47.542;19.082;2024-03-23T01:48:39;20.92;;;14.32;;
61013;SDS011;46899;47.542;19.082;2024-03-23T01:51:40;24.05;;;15.43;;
61013;SDS011;46899;47.542;19.082;2024-03-23T01:54:43;24.00;;;15.77;;
61013;SDS011;46899;47.542;19.082;2024-03-23T01:57:46;26.27;;;15.85;;
61013;SDS011;46899;47.542;19.082;2024-03-23T02:00:48;28.55;;;15.23;;
61013;SDS011;46899;47.542;19.082;2024-03-23T02:03:50;26.20;;;15.18;;
61013;SDS011;46899;47.542;19.082;2024-03-23T02:06:52;24.52;;;15.57;;
61013;SDS011;46899;47.542;19.082;2024-03-23T02:09:54;26.92;;;15.63;;
61013;SDS011;46899;47.542;19.082;2024-03-23T02:12:56;28.30;;;16.40;;
61013;SDS011;46899;47.542;19.082;2024-03-23T02:15:58;28.33;;;17.37;;
61013;SDS011;46899;47.542;19.082;2024-03-23T02:19:01;26.50;;;15.70;;
61013;SDS011;46899;47.542;19.082;2024-03-23T02:22:03;26.15;;;15.52;;
61013;SDS011;46899;47.542;19.082;2024-03-23T02:25:05;28.92;;;17.60;;
61013;SDS011;46899;47.542;19.082;2024-03-23T02:28:08;29.83;;;18.65;;
61013;SDS011;46899;47.542;19.082;2024-03-23T02:31:10;41.92;;;21.95;;
61013;SDS011;46899;47.542;19.082;2024-03-23T02:34:12;32.47;;;20.42;;
61013;SDS011;46899;47.542;19.082;2024-03-23T02:37:14;35.38;;;21.08;;
61013;SDS011;46899;47.542;19.082;2024-03-23T02:40:16;40.17;;;22.40;;
61013;SDS011;46899;47.542;19.082;2024-03-23T02:43:18;36.22;;;23.50;;
61013;SDS011;46899;47.542;19.082;2024-03-23T02:46:20;36.25;;;23.20;;
61013;SDS011;46899;47.542;19.082;2024-03-23T02:49:22;41.42;;;23.08;;
61013;SDS011;46899;47.542;19.082;2024-03-23T02:52:24;38.40;;;23.70;;
61013;SDS011;46899;47.542;19.082;2024-03-23T02:55:26;40.95;;;22.40;;
61013;SDS011;46899;47.542;19.082;2024-03-23T02:58:28;39.50;;;22.83;;
61013;SDS011;46899;47.542;19.082;2024-03-23T03:01:31;42.88;;;24.67;;
61013;SDS011;46899;47.542;19.082;2024-03-23T03:04:33;36.97;;;22.02;;
61013;SDS011;46899;47.542;19.082;2024-03-23T03:07:35;38.13;;;24.12;;
61013;SDS011;46899;47.542;19.082;2024-03-23T03:10:37;41.83;;;24.17;;
61013;SDS011;46899;47.542;19.082;2024-03-23T03:13:39;38.83;;;22.75;;
61013;SDS011;46899;47.542;19.082;2024-03-23T03:16:41;37.70;;;23.38;;
61013;SDS011;46899;47.542;19.082;2024-03-23T03:19:43;39.25;;;23.60;;
61013;SDS011;46899;47.542;19.082;2024-03-23T03:22:45;38.10;;;23.60;;
61013;SDS011;46899;47.542;19.082;2024-03-23T03:25:47;35.28;;;23.33;;
61013;SDS011;46899;47.542;19.082;2024-03-23T03:28:49;37.70;;;23.45;;
61013;SDS011;46899;47.542;19.082;2024-03-23T03:31:51;37.03;;;22.67;;
61013;SDS011;46899;47.542;19.082;2024-03-23T03:34:54;38.38;;;23.52;;
61013;SDS011;46899;47.542;19.082;2024-03-23T03:37:55;35.72;;;22.87;;
61013;SDS011;46899;47.542;19.082;2024-03-23T03:40:57;37.33;;;21.77;;
61013;SDS011;46899;47.542;19.082;2024-03-23T03:44:00;39.80;;;22.70;;
61013;SDS011;46899;47.542;19.082;2024-03-23T03:47:03;35.42;;;22.17;;
61013;SDS011;46899;47.542;19.082;2024-03-23T03:50:07;37.40;;;21.87;;
61013;SDS011;46899;47.542;19.082;2024-03-23T03:53:09;37.92;;;22.30;;
61013;SDS011;46899;47.542;19.082;2024-03-23T03:56:10;36.78;;;22.58;;
61013;SDS011;46899;47.542;19.082;2024-03-23T03:59:12;32.83;;;22.17;;
61013;SDS011;46899;47.542;19.082;2024-03-23T04:02:14;37.92;;;23.42;;
61013;SDS011;46899;47.542;19.082;2024-03-23T04:05:16;36.78;;;23.40;;
61013;SDS011;46899;47.542;19.082;2024-03-23T04:08:18;33.03;;;21.85;;
61013;SDS011;46899;47.542;19.082;2024-03-23T04:11:21;34.33;;;22.08;;
61013;SDS011;46899;47.542;19.082;2024-03-23T04:14:23;34.90;;;22.42;;
61013;SDS011;46899;47.542;19.082;2024-03-23T04:17:25;34.13;;;22.15;;
61013;SDS011;46899;47.542;19.082;2024-03-23T04:20:30;36.22;;;22.35;;
61013;SDS011;46899;47.542;19.082;2024-03-23T04:23:33;36.15;;;21.65;;
61013;SDS011;46899;47.542;19.082;2024-03-23T04:26:44;32.55;;;21.40;;
61013;SDS011;46899;47.542;19.082;2024-03-23T04:29:47;33.95;;;21.00;;
61013;SDS011;46899;47.542;19.082;2024-03-23T04:32:50;32.22;;;21.27;;
61013;SDS011;46899;47.542;19.082;2024-03-23T04:35:52;31.80;;;20.70;;
61013;SDS011;46899;47.542;19.082;2024-03-23T04:38:54;32.97;;;20.73;;
61013;SDS011;46899;47.542;19.082;2024-03-23T04:41:56;32.47;;;20.27;;
61013;SDS011;46899;47.542;19.082;2024-03-23T04:44:57;30.33;;;19.67;;
61013;SDS011;46899;47.542;19.082;2024-03-23T04:47:59;31.35;;;19.77;;
61013;SDS011;46899;47.542;19.082;2024-03-23T04:51:01;30.73;;;20.15;;
61013;SDS011;46899;47.542;19.082;2024-03-23T04:54:04;32.92;;;20.55;;
61013;SDS011;46899;47.542;19.082;2024-03-23T04:57:07;29.70;;;19.20;;
61013;SDS011;46899;47.542;19.082;2024-03-23T05:00:09;29.45;;;18.98;;
61013;SDS011;46899;47.542;19.082;2024-03-23T05:03:18;28.33;;;18.33;;
61013;SDS011;46899;47.542;19.082;2024-03-23T05:06:21;26.55;;;18.30;;
61013;SDS011;46899;47.542;19.082;2024-03-23T05:09:23;29.55;;;18.98;;
61013;SDS011;46899;47.542;19.082;2024-03-23T05:12:25;28.25;;;18.58;;
61013;SDS011;46899;47.542;19.082;2024-03-23T05:15:27;27.33;;;18.45;;
61013;SDS011;46899;47.542;19.082;2024-03-23T05:18:29;28.30;;;19.35;;
61013;SDS011;46899;47.542;19.082;2024-03-23T05:21:31;31.73;;;18.35;;
61013;SDS011;46899;47.542;19.082;2024-03-23T05:24:33;28.12;;;17.65;;
61013;SDS011;46899;47.542;19.082;2024-03-23T05:27:35;26.48;;;17.87;;
61013;SDS011;46899;47.542;19.082;2024-03-23T05:30:38;27.67;;;18.25;;
61013;SDS011;46899;47.542;19.082;2024-03-23T05:33:39;25.08;;;17.87;;
61013;SDS011;46899;47.542;19.082;2024-03-23T05:36:41;24.73;;;17.70;;
61013;SDS011;46899;47.542;19.082;2024-03-23T05:39:43;27.58;;;17.67;;
61013;SDS011;46899;47.542;19.082;2024-03-23T05:42:45;29.48;;;17.77;;
61013;SDS011;46899;47.542;19.082;2024-03-23T05:45:54;27.40;;;16.27;;
61013;SDS011;46899;47.542;19.082;2024-03-23T05:49:00;24.25;;;16.58;;
61013;SDS011;46899;47.542;19.082;2024-03-23T05:52:03;25.70;;;17.05;;
61013;SDS011;46899;47.542;19.082;2024-03-23T05:55:05;27.17;;;17.45;;
61013;SDS011;46899;47.542;19.082;2024-03-23T05:58:08;24.73;;;17.30;;
61013;SDS011;46899;47.542;19.082;2024-03-23T06:01:10;27.05;;;17.23;;
61013;SDS011;46899;47.542;19.082;2024-03-23T06:04:12;29.30;;;18.70;;
61013;SDS011;46899;47.542;19.082;2024-03-23T06:07:14;25.52;;;17.15;;
61013;SDS011;46899;47.542;19.082;2024-03-23T06:10:17;28.33;;;17.65;;
61013;SDS011;46899;47.542;19.082;2024-03-23T06:13:19;25.83;;;17.98;;
61013;SDS011;46899;47.542;19.082;2024-03-23T06:16:23;24.00;;;16.58;;
61013;SDS011;46899;47.542;19.082;2024-03-23T06:19:26;24.48;;;17.98;;
61013;SDS011;46899;47.542;19.082;2024-03-23T06:22:29;26.77;;;17.12;;
61013;SDS011;46899;47.542;19.082;2024-03-23T06:25:31;26.50;;;18.00;;
61013;SDS011;46899;47.542;19.082;2024-03-23T06:28:34;24.48;;;16.90;;
61013;SDS011;46899;47.542;19.082;2024-03-23T06:31:36;26.65;;;18.10;;
61013;SDS011;46899;47.542;19.082;2024-03-23T06:34:37;25.62;;;17.30;;
61013;SDS011;46899;47.542;19.082;2024-03-23T06:37:39;25.83;;;18.77;;
61013;SDS011;46899;47.542;19.082;2024-03-23T06:40:42;25.35;;;17.98;;
61013;SDS011;46899;47.542;19.082;2024-03-23T06:43:44;26.98;;;18.45;;
61013;SDS011;46899;47.542;19.082;2024-03-23T06:46:46;24.50;;;18.45;;
61013;SDS011;46899;47.542;19.082;2024-03-23T06:49:50;25.65;;;18.67;;
61013;SDS011;46899;47.542;19.082;2024-03-23T06:52:52;27.60;;;18.40;;
61013;SDS011;46899;47.542;19.082;2024-03-23T06:55:54;28.62;;;19.73;;
61013;SDS011;46899;47.542;19.082;2024-03-23T06:58:56;30.23;;;19.10;;
61013;SDS011;46899;47.542;19.082;2024-03-23T07:01:58;24.42;;;18.45;;
61013;SDS011;46899;47.542;19.082;2024-03-23T07:05:00;29.20;;;18.58;;
61013;SDS011;46899;47.542;19.082;2024-03-23T07:08:02;26.40;;;18.37;;
61013;SDS011;46899;47.542;19.082;2024-03-23T07:11:04;25.05;;;18.12;;
61013;SDS011;46899;47.542;19.082;2024-03-23T07:14:06;26.35;;;18.75;;
61013;SDS011;46899;47.542;19.082;2024-03-23T07:17:09;24.23;;;17.10;;
61013;SDS011;46899;47.542;19.082;2024-03-23T07:20:11;28.95;;;18.75;;
61013;SDS011;46899;47.542;19.082;2024-03-23T07:23:13;23.30;;;17.45;;
61013;SDS011;46899;47.542;19.082;2024-03-23T07:26:14;21.87;;;17.48;;
61013;SDS011;46899;47.542;19.082;2024-03-23T07:29:17;24.12;;;17.37;;
61013;SDS011;46899;47.542;19.082;2024-03-23T07:32:19;22.25;;;17.25;;
61013;SDS011;46899;47.542;19.082;2024-03-23T07:35:21;24.95;;;17.35;;
61013;SDS011;46899;47.542;19.082;2024-03-23T07:38:23;24.80;;;17.67;;
61013;SDS011;46899;47.542;19.082;2024-03-23T07:41:25;23.90;;;17.62;;
61013;SDS011;46899;47.542;19.082;2024-03-23T07:44:28;24.63;;;18.40;;
61013;SDS011;46899;47.542;19.082;2024-03-23T07:47:31;23.20;;;17.80;;
61013;SDS011;46899;47.542;19.082;2024-03-23T07:50:33;24.90;;;17.75;;
61013;SDS011;46899;47.542;19.082;2024-03-23T07:53:35;25.60;;;18.62;;
61013;SDS011;46899;47.542;19.082;2024-03-23T07:56:38;23.40;;;17.98;;
61013;SDS011;46899;47.542;19.082;2024-03-23T07:59:40;23.75;;;17.45;;
61013;SDS011;46899;47.542;19.082;2024-03-23T08:02:42;23.15;;;18.52;;
61013;SDS011;46899;47.542;19.082;2024-03-23T08:05:44;24.30;;;17.75;;
61013;SDS011;46899;47.542;19.082;2024-03-23T08:08:47;25.27;;;18.42;;
61013;SDS011;46899;47.542;19.082;2024-03-23T08:11:50;22.05;;;17.85;;
61013;SDS011;46899;47.542;19.082;2024-03-23T08:14:52;24.23;;;19.25;;
61013;SDS011;46899;47.542;19.082;2024-03-23T08:17:54;23.50;;;17.83;;
61013;SDS011;46899;47.542;19.082;2024-03-23T08:21:14;22.50;;;17.77;;
61013;SDS011;46899;47.542;19.082;2024-03-23T08:24:16;21.87;;;17.92;;
61013;SDS011;46899;47.542;19.082;2024-03-23T08:27:18;22.15;;;17.52;;
61013;SDS011;46899;47.542;19.082;2024-03-23T08:30:20;23.20;;;16.58;;
61013;SDS011;46899;47.542;19.082;2024-03-23T08:33:22;21.83;;;16.45;;
61013;SDS011;46899;47.542;19.082;2024-03-23T08:36:27;20.02;;;15.90;;
61013;SDS011;46899;47.542;19.082;2024-03-23T08:39:30;20.05;;;15.88;;
61013;SDS011;46899;47.542;19.082;2024-03-23T08:42:32;24.20;;;15.63;;
61013;SDS011;46899;47.542;19.082;2024-03-23T08:45:34;22.23;;;17.02;;
61013;SDS011;46899;47.542;19.082;2024-03-23T08:48:37;21.33;;;15.65;;
61013;SDS011;46899;47.542;19.082;2024-03-23T08:51:41;19.73;;;15.77;;
61013;SDS011;46899;47.542;19.082;2024-03-23T08:54:43;21.73;;;16.33;;
61013;SDS011;46899;47.542;19.082;2024-03-23T08:57:44;22.75;;;16.25;;
61013;SDS011;46899;47.542;19.082;2024-03-23T09:00:46;26.08;;;15.85;;
61013;SDS011;46899;47.542;19.082;2024-03-23T09:03:48;20.15;;;15.07;;
61013;SDS011;46899;47.542;19.082;2024-03-23T09:06:50;18.90;;;14.75;;
61013;SDS011;46899;47.542;19.082;2024-03-23T09:09:52;18.40;;;14.50;;
61013;SDS011;46899;47.542;19.082;2024-03-23T09:12:54;16.92;;;14.45;;
61013;SDS011;46899;47.542;19.082;2024-03-23T09:15:56;16.80;;;14.10;;
61013;SDS011;46899;47.542;19.082;2024-03-23T09:18:58;17.80;;;14.35;;
61013;SDS011;46899;47.542;19.082;2024-03-23T09:22:00;18.80;;;13.95;;
61013;SDS011;46899;47.542;19.082;2024-03-23T09:25:02;15.80;;;12.73;;
61013;SDS011;46899;47.542;19.082;2024-03-23T09:28:06;17.05;;;13.10;;
61013;SDS011;46899;47.542;19.082;2024-03-23T09:31:12;13.52;;;11.95;;
61013;SDS011;46899;47.542;19.082;2024-03-23T09:34:15;16.42;;;12.32;;
61013;SDS011;46899;47.542;19.082;2024-03-23T09:37:17;15.82;;;12.40;;
61013;SDS011;46899;47.542;19.082;2024-03-23T09:40:19;15.55;;;12.52;;
61013;SDS011;46899;47.542;19.082;2024-03-23T09:43:21;15.63;;;12.43;;
61013;SDS011;46899;47.542;19.082;2024-03-23T09:46:23;14.18;;;11.23;;
61013;SDS011;46899;47.542;19.082;2024-03-23T09:49:26;15.65;;;11.60;;
61013;SDS011;46899;47.542;19.082;2024-03-23T09:52:28;16.30;;;11.85;;
61013;SDS011;46899;47.542;19.082;2024-03-23T09:55:30;13.10;;;10.88;;
61013;SDS011;46899;47.542;19.082;2024-03-23T09:58:32;13.75;;;10.52;;
61013;SDS011;46899;47.542;19.082;2024-03-23T10:01:34;13.38;;;10.75;;
61013;SDS011;46899;47.542;19.082;2024-03-23T10:04:37;14.07;;;10.60;;
61013;SDS011;46899;47.542;19.082;2024-03-23T10:07:39;14.07;;;10.55;;
61013;SDS011;46899;47.542;19.082;2024-03-23T10:10:41;13.60;;;10.25;;
61013;SDS011;46899;47.542;19.082;2024-03-23T10:13:44;13.95;;;9.73;;
61013;SDS011;46899;47.542;19.082;2024-03-23T10:16:47;13.23;;;9.63;;
61013;SDS011;46899;47.542;19.082;2024-03-23T10:19:49;11.60;;;8.50;;
61013;SDS011;46899;47.542;19.082;2024-03-23T10:22:52;10.55;;;8.05;;
61013;SDS011;46899;47.542;19.082;2024-03-23T10:25:54;10.18;;;7.50;;
61013;SDS011;46899;47.542;19.082;2024-03-23T10:28:57;11.12;;;6.95;;
61013;SDS011;46899;47.542;19.082;2024-03-23T10:32:09;11.80;;;6.82;;
61013;SDS011;46899;47.542;19.082;2024-03-23T10:35:16;9.10;;;6.37;;
61013;SDS011;46899;47.542;19.082;2024-03-23T10:38:25;8.30;;;6.25;;
61013;SDS011;46899;47.542;19.082;2024-03-23T10:41:27;10.68;;;6.70;;
61013;SDS011;46899;47.542;19.082;2024-03-23T10:44:33;8.93;;;6.45;;
61013;SDS011;46899;47.542;19.082;2024-03-23T10:47:36;9.70;;;6.03;;
61013;SDS011;46899;47.542;19.082;2024-03-23T10:50:38;7.93;;;6.18;;
61013;SDS011;46899;47.542;19.082;2024-03-23T10:53:40;10.15;;;6.12;;
61013;SDS011;46899;47.542;19.082;2024-03-23T10:56:42;21.10;;;6.72;;
61013;SDS011;46899;47.542;19.082;2024-03-23T10:59:44;11.85;;;6.70;;
61013;SDS011;46899;47.542;19.082;2024-03-23T11:02:50;10.48;;;6.18;;
61013;SDS011;46899;47.542;19.082;2024-03-23T11:05:52;6.97;;;5.82;;
61013;SDS011;46899;47.542;19.082;2024-03-23T11:08:54;6.40;;;4.90;;
61013;SDS011;46899;47.542;19.082;2024-03-23T11:11:56;9.40;;;6.53;;
61013;SDS011;46899;47.542;19.082;2024-03-23T11:14:59;8.13;;;5.10;;
61013;SDS011;46899;47.542;19.082;2024-03-23T11:18:04;8.52;;;5.68;;
61013;SDS011;46899;47.542;19.082;2024-03-23T11:21:09;8.25;;;4.80;;
61013;SDS011;46899;47.542;19.082;2024-03-23T11:24:15;7.50;;;4.50;;
61013;SDS011;46899;47.542;19.082;2024-03-23T11:27:17;8.90;;;4.72;;
61013;SDS011;46899;47.542;19.082;2024-03-23T11:30:28;7.50;;;4.85;;
61013;SDS011;46899;47.542;19.082;2024-03-23T11:33:30;7.37;;;4.72;;
61013;SDS011;46899;47.542;19.082;2024-03-23T11:36:33;6.60;;;4.30;;
61013;SDS011;46899;47.542;19.082;2024-03-23T11:39:34;8.07;;;4.62;;
61013;SDS011;46899;47.542;19.082;2024-03-23T11:42:36;5.68;;;3.92;;
61013;SDS011;46899;47.542;19.082;2024-03-23T11:45:39;5.75;;;4.05;;
61013;SDS011;46899;47.542;19.082;2024-03-23T11:48:55;7.40;;;3.80;;
61013;SDS011;46899;47.542;19.082;2024-03-23T11:51:57;7.37;;;4.55;;
61013;SDS011;46899;47.542;19.082;2024-03-23T11:55:03;7.07;;;4.60;;
61013;SDS011;46899;47.542;19.082;2024-03-23T11:58:06;8.02;;;4.40;;
61013;SDS011;46899;47.542;19.082;2024-03-23T12:01:09;6.60;;;4.60;;
61013;SDS011;46899;47.542;19.082;2024-03-23T12:04:12;5.27;;;3.97;;
61013;SDS011;46899;47.542;19.082;2024-03-23T12:07:17;6.90;;;4.00;;
61013;SDS011;46899;47.542;19.082;2024-03-23T12:10:21;5.97;;;3.80;;
61013;SDS011;46899;47.542;19.082;2024-03-23T12:13:23;5.72;;;4.03;;
61013;SDS011;46899;47.542;19.082;2024-03-23T12:16:25;7.75;;;4.25;;
61013;SDS011;46899;47.542;19.082;2024-03-23T12:19:29;6.27;;;3.90;;
61013;SDS011;46899;47.542;19.082;2024-03-23T12:22:31;5.50;;;4.07;;
61013;SDS011;46899;47.542;19.082;2024-03-23T12:25:32;5.32;;;3.72;;
61013;SDS011;46899;47.542;19.082;2024-03-23T12:28:37;5.40;;;3.95;;
61013;SDS011;46899;47.542;19.082;2024-03-23T12:31:39;6.45;;;3.45;;
61013;SDS011;46899;47.542;19.082;2024-03-23T12:34:41;4.97;;;3.33;;
61013;SDS011;46899;47.542;19.082;2024-03-23T12:37:43;7.22;;;3.30;;
61013;SDS011;46899;47.542;19.082;2024-03-23T12:40:49;5.47;;;3.42;;
61013;SDS011;46899;47.542;19.082;2024-03-23T12:43:52;6.57;;;3.05;;
61013;SDS011;46899;47.542;19.082;2024-03-23T12:46:54;4.60;;;2.92;;
61013;SDS011;46899;47.542;19.082;2024-03-23T12:49:55;4.03;;;2.80;;
61013;SDS011;46899;47.542;19.082;2024-03-23T12:52:57;4.18;;;3.00;;
61013;SDS011;46899;47.542;19.082;2024-03-23T12:55:59;5.65;;;3.00;;
61013;SDS011;46899;47.542;19.082;2024-03-23T12:59:01;5.55;;;2.72;;
61013;SDS011;46899;47.542;19.082;2024-03-23T13:02:03;5.85;;;2.90;;
61013;SDS011;46899;47.542;19.082;2024-03-23T13:05:05;3.62;;;2.85;;
61013;SDS011;46899;47.542;19.082;2024-03-23T13:08:09;5.45;;;3.12;;
61013;SDS011;46899;47.542;19.082;2024-03-23T13:11:11;4.87;;;3.00;;
61013;SDS011;46899;47.542;19.082;2024-03-23T13:14:14;6.10;;;2.90;;
61013;SDS011;46899;47.542;19.082;2024-03-23T13:17:18;6.00;;;3.33;;
61013;SDS011;46899;47.542;19.082;2024-03-23T13:20:19;3.72;;;2.70;;
61013;SDS011;46899;47.542;19.082;2024-03-23T13:23:22;3.70;;;2.67;;
61013;SDS011;46899;47.542;19.082;2024-03-23T13:26:24;6.43;;;3.17;;
61013;SDS011;46899;47.542;19.082;2024-03-23T13:29:26;3.72;;;2.42;;
61013;SDS011;46899;47.542;19.082;2024-03-23T13:32:28;4.30;;;2.83;;
61013;SDS011;46899;47.542;19.082;2024-03-23T13:35:30;4.75;;;2.60;;
61013;SDS011;46899;47.542;19.082;2024-03-23T13:38:32;4.55;;;2.70;;
61013;SDS011;46899;47.542;19.082;2024-03-23T13:41:34;4.55;;;2.55;;
61013;SDS011;46899;47.542;19.082;2024-03-23T13:44:36;4.07;;;2.45;;
61013;SDS011;46899;47.542;19.082;2024-03-23T13:47:38;6.25;;;3.20;;
61013;SDS011;46899;47.542;19.082;2024-03-23T13:50:40;4.82;;;2.83;;
61013;SDS011;46899;47.542;19.082;2024-03-23T13:53:42;4.70;;;2.75;;
61013;SDS011;46899;47.542;19.082;2024-03-23T13:56:43;5.35;;;2.65;;
61013;SDS011;46899;47.542;19.082;2024-03-23T13:59:46;3.58;;;2.62;;
61013;SDS011;46899;47.542;19.082;2024-03-23T14:02:48;3.25;;;2.72;;
61013;SDS011;46899;47.542;19.082;2024-03-23T14:05:51;3.47;;;2.53;;
61013;SDS011;46899;47.542;19.082;2024-03-23T14:08:54;4.20;;;2.90;;
61013;SDS011;46899;47.542;19.082;2024-03-23T14:11:55;4.32;;;2.58;;
61013;SDS011;46899;47.542;19.082;2024-03-23T14:14:57;4.18;;;2.67;;
61013;SDS011;46899;47.542;19.082;2024-03-23T14:17:59;2.78;;;2.30;;
61013;SDS011;46899;47.542;19.082;2024-03-23T14:21:01;3.00;;;2.22;;
61013;SDS011;46899;47.542;19.082;2024-03-23T14:24:04;3.95;;;2.67;;
61013;SDS011;46899;47.542;19.082;2024-03-23T14:27:06;4.22;;;2.60;;
61013;SDS011;46899;47.542;19.082;2024-03-23T14:30:08;4.45;;;2.58;;
61013;SDS011;46899;47.542;19.082;2024-03-23T14:33:11;3.42;;;2.33;;
61013;SDS011;46899;47.542;19.082;2024-03-23T14:36:14;3.62;;;2.67;;
61013;SDS011;46899;47.542;19.082;2024-03-23T14:39:16;5.20;;;2.70;;
61013;SDS011;46899;47.542;19.082;2024-03-23T14:42:17;5.60;;;2.87;;
61013;SDS011;46899;47.542;19.082;2024-03-23T14:45:20;4.95;;;2.70;;
61013;SDS011;46899;47.542;19.082;2024-03-23T14:48:24;5.07;;;2.55;;
61013;SDS011;46899;47.542;19.082;2024-03-23T14:51:26;4.75;;;3.35;;
61013;SDS011;46899;47.542;19.082;2024-03-23T14:54:29;6.93;;;2.53;;
61013;SDS011;46899;47.542;19.082;2024-03-23T14:57:31;6.15;;;3.03;;
61013;SDS011;46899;47.542;19.082;2024-03-23T15:00:33;5.75;;;2.70;;
61013;SDS011;46899;47.542;19.082;2024-03-23T15:03:38;3.62;;;2.62;;
61013;SDS011;46899;47.542;19.082;2024-03-23T15:06:41;7.75;;;2.70;;
61013;SDS011;46899;47.542;19.082;2024-03-23T15:09:43;3.78;;;2.90;;
61013;SDS011;46899;47.542;19.082;2024-03-23T15:12:45;4.25;;;2.65;;
61013;SDS011;46899;47.542;19.082;2024-03-23T15:15:47;4.93;;;2.75;;
61013;SDS011;46899;47.542;19.082;2024-03-23T15:18:50;6.25;;;2.90;;
61013;SDS011;46899;47.542;19.082;2024-03-23T15:21:52;4.72;;;2.87;;
61013;SDS011;46899;47.542;19.082;2024-03-23T15:24:54;5.35;;;2.58;;
61013;SDS011;46899;47.542;19.082;2024-03-23T15:27:56;5.10;;;3.00;;
61013;SDS011;46899;47.542;19.082;2024-03-23T15:30:59;8.13;;;3.00;;
61013;SDS011;46899;47.542;19.082;2024-03-23T15:34:01;4.22;;;3.05;;
61013;SDS011;46899;47.542;19.082;2024-03-23T15:37:03;6.82;;;3.60;;
61013;SDS011;46899;47.542;19.082;2024-03-23T15:40:08;6.60;;;3.35;;
61013;SDS011;46899;47.542;19.082;2024-03-23T15:43:12;4.55;;;3.10;;
61013;SDS011;46899;47.542;19.082;2024-03-23T15:46:13;7.20;;;3.83;;
61013;SDS011;46899;47.542;19.082;2024-03-23T15:49:16;5.65;;;3.35;;
61013;SDS011;46899;47.542;19.082;2024-03-23T15:52:18;5.28;;;3.05;;
61013;SDS011;46899;47.542;19.082;2024-03-23T15:55:20;6.32;;;3.45;;
61013;SDS011;46899;47.542;19.082;2024-03-23T15:58:22;4.18;;;3.22;;
61013;SDS011;46899;47.542;19.082;2024-03-23T16:01:25;4.60;;;3.25;;
61013;SDS011;46899;47.542;19.082;2024-03-23T16:04:27;6.50;;;2.97;;
61013;SDS011;46899;47.542;19.082;2024-03-23T16:07:29;8.68;;;3.62;;
61013;SDS011;46899;47.542;19.082;2024-03-23T16:10:31;3.60;;;2.92;;
61013;SDS011;46899;47.542;19.082;2024-03-23T16:13:33;6.00;;;3.28;;
61013;SDS011;46899;47.542;19.082;2024-03-23T16:16:36;5.35;;;2.83;;
61013;SDS011;46899;47.542;19.082;2024-03-23T16:19:38;4.22;;;2.90;;
61013;SDS011;46899;47.542;19.082;2024-03-23T16:22:40;4.37;;;2.92;;
61013;SDS011;46899;47.542;19.082;2024-03-23T16:25:46;5.37;;;3.15;;
61013;SDS011;46899;47.542;19.082;2024-03-23T16:28:57;3.40;;;2.97;;
61013;SDS011;46899;47.542;19.082;2024-03-23T16:31:58;5.10;;;2.87;;
61013;SDS011;46899;47.542;19.082;2024-03-23T16:35:00;4.50;;;2.70;;
61013;SDS011;46899;47.542;19.082;2024-03-23T16:38:02;4.07;;;2.80;;
61013;SDS011;46899;47.542;19.082;2024-03-23T16:41:08;5.50;;;3.35;;
61013;SDS011;46899;47.542;19.082;2024-03-23T16:44:11;4.55;;;3.08;;
61013;SDS011;46899;47.542;19.082;2024-03-23T16:47:13;5.28;;;3.30;;
61013;SDS011;46899;47.542;19.082;2024-03-23T16:50:15;6.85;;;3.40;;
61013;SDS011;46899;47.542;19.082;2024-03-23T16:53:17;4.65;;;3.10;;
61013;SDS011;46899;47.542;19.082;2024-03-23T16:56:19;6.70;;;3.28;;
61013;SDS011;46899;47.542;19.082;2024-03-23T16:59:21;6.75;;;3.20;;
61013;SDS011;46899;47.542;19.082;2024-03-23T17:02:23;5.50;;;3.10;;
61013;SDS011;46899;47.542;19.082;2024-03-23T17:05:25;13.62;;;2.87;;
61013;SDS011;46899;47.542;19.082;2024-03-23T17:08:27;7.30;;;2.22;;
61013;SDS011;46899;47.542;19.082;2024-03-23T17:11:29;9.48;;;2.00;;
61013;SDS011;46899;47.542;19.082;2024-03-23T17:14:30;10.68;;;1.80;;
61013;SDS011;46899;47.542;19.082;2024-03-23T17:17:32;11.45;;;1.83;;
61013;SDS011;46899;47.542;19.082;2024-03-23T17:20:34;7.43;;;1.80;;
61013;SDS011;46899;47.542;19.082;2024-03-23T17:23:36;6.62;;;1.33;;
61013;SDS011;46899;47.542;19.082;2024-03-23T17:26:38;9.27;;;1.30;;
61013;SDS011;46899;47.542;19.082;2024-03-23T17:29:40;6.12;;;2.00;;
61013;SDS011;46899;47.542;19.082;2024-03-23T17:32:45;4.68;;;1.60;;
61013;SDS011;46899;47.542;19.082;2024-03-23T17:35:47;22.55;;;1.83;;
61013;SDS011;46899;47.542;19.082;2024-03-23T17:38:49;5.28;;;1.45;;
61013;SDS011;46899;47.542;19.082;2024-03-23T17:41:51;11.02;;;1.12;;
61013;SDS011;46899;47.542;19.082;2024-03-23T17:44:53;4.97;;;1.00;;
61013;SDS011;46899;47.542;19.082;2024-03-23T17:47:55;3.92;;;1.00;;
61013;SDS011;46899;47.542;19.082;2024-03-23T17:51:01;2.03;;;0.85;;
61013;SDS011;46899;47.542;19.082;2024-03-23T17:54:04;4.10;;;1.02;;
61013;SDS011;46899;47.542;19.082;2024-03-23T17:57:06;96.03;;;6.60;;
61013;SDS011;46899;47.542;19.082;2024-03-23T18:00:08;0.98;;;0.95;;
61013;SDS011;46899;47.542;19.082;2024-03-23T18:03:12;2.05;;;1.05;;
61013;SDS011;46899;47.542;19.082;2024-03-23T18:06:14;1.52;;;1.10;;
61013;SDS011;46899;47.542;19.082;2024-03-23T18:09:16;2.25;;;1.10;;
61013;SDS011;46899;47.542;19.082;2024-03-23T18:12:18;4.68;;;1.00;;
61013;SDS011;46899;47.542;19.082;2024-03-23T18:15:21;4.93;;;1.27;;
61013;SDS011;46899;47.542;19.082;2024-03-23T18:18:23;6.28;;;2.72;;
61013;SDS011;46899;47.542;19.082;2024-03-23T18:21:26;4.32;;;1.20;;
61013;SDS011;46899;47.542;19.082;2024-03-23T18:24:27;5.97;;;1.37;;
61013;SDS011;46899;47.542;19.082;2024-03-23T18:27:29;1.12;;;0.77;;
61013;SDS011;46899;47.542;19.082;2024-03-23T18:30:31;2.62;;;1.00;;
61013;SDS011;46899;47.542;19.082;2024-03-23T18:33:35;5.30;;;0.90;;
61013;SDS011;46899;47.542;19.082;2024-03-23T18:36:39;2.10;;;0.88;;
61013;SDS011;46899;47.542;19.082;2024-03-23T18:39:40;3.87;;;0.90;;